Time;durP1;ratioP1;P1;durP2;ratioP2;P2;SDS_P1;SDS_P2;PMS_P1;PMS_P2;Temp;Humidity;BMP_temperature;BMP_pressure;BME280_temperature;BME280_humidity;BME280_pressure;Samples;Min_cycle;Max_cycle;Signal;HPM_P1;HPM_P2
2021/06/18 00:00:01;;;;;;;6.87;3.08;;;;;;;21.41;51.16;101216.25;146696;592;46018;-63
2021/06/18 00:02:31;;;;;;;7.60;3.17;;;;;;;21.35;50.96;101208.66;146701;594;45019;-63
2021/06/18 00:05:04;;;;;;;7.43;3.42;;;;;;;21.35;51.17;101211.31;146698;635;46018;-63
2021/06/18 00:07:35;;;;;;;5.50;3.20;;;;;;;21.30;51.12;101213.41;146698;629;46018;-63
2021/06/18 00:10:08;;;;;;;7.93;3.10;;;;;;;21.26;51.70;101212.75;146697;581;46011;-63
2021/06/18 00:12:49;;;;;;;7.18;3.62;;;;;;;21.27;51.21;101206.47;146697;564;46018;-63
2021/06/18 00:15:19;;;;;;;8.00;2.90;;;;;;;21.27;51.62;101203.78;146697;591;46907;-63
2021/06/18 00:17:50;;;;;;;7.68;3.33;;;;;;;21.24;51.64;101203.13;146696;660;46010;-62
2021/06/18 00:20:23;;;;;;;6.53;3.30;;;;;;;21.22;51.43;101199.72;146697;628;46907;-63
2021/06/18 00:22:54;;;;;;;5.50;3.20;;;;;;;21.26;51.68;101201.22;146699;602;46008;-64
2021/06/18 00:25:24;;;;;;;5.30;3.58;;;;;;;21.28;51.43;101194.84;146697;618;46019;-62
2021/06/18 00:27:56;;;;;;;5.60;3.10;;;;;;;21.28;51.81;101194.84;146698;614;46008;-63
2021/06/18 00:30:26;;;;;;;6.95;3.08;;;;;;;21.29;51.85;101179.66;146698;614;46016;-63
2021/06/18 00:32:57;;;;;;;5.37;3.10;;;;;;;21.34;51.79;101182.87;146699;600;46019;-63
2021/06/18 00:35:27;;;;;;;8.30;3.20;;;;;;;21.31;51.37;101177.75;146699;629;46010;-63
2021/06/18 00:37:58;;;;;;;8.13;3.20;;;;;;;21.34;51.43;101177.53;146698;585;46018;-64
2021/06/18 00:40:29;;;;;;;5.55;3.20;;;;;;;21.30;51.95;101176.03;146698;580;46017;-63
2021/06/18 00:42:59;;;;;;;10.10;3.53;;;;;;;21.27;51.54;101176.25;146697;584;46008;-62
2021/06/18 00:45:30;;;;;;;6.85;3.15;;;;;;;21.25;51.85;101176.31;146698;594;46010;-63
2021/06/18 00:48:02;;;;;;;5.95;3.20;;;;;;;21.23;51.97;101175.56;146701;566;46008;-63
2021/06/18 00:50:32;;;;;;;6.55;3.60;;;;;;;21.18;52.41;101169.69;146698;588;46016;-61
2021/06/18 00:53:03;;;;;;;6.07;3.55;;;;;;;21.17;52.53;101175.13;146699;591;46018;-61
2021/06/18 00:55:34;;;;;;;5.55;3.30;;;;;;;21.10;52.96;101153.31;146697;598;46012;-61
2021/06/18 00:58:07;;;;;;;9.38;3.60;;;;;;;21.11;53.09;101163.88;146698;563;46018;-61
2021/06/18 01:00:37;;;;;;;7.60;3.70;;;;;;;21.08;53.11;101161.41;146694;593;46012;-62
2021/06/18 01:03:08;;;;;;;6.22;3.60;;;;;;;21.04;53.14;101164.41;146698;597;46019;-62
2021/06/18 01:05:40;;;;;;;5.62;3.30;;;;;;;21.05;53.05;101171.44;146698;593;46010;-62
2021/06/18 01:08:41;;;;;;;6.25;3.10;;;;;;;20.99;52.63;101158.50;146699;607;46018;-62
2021/06/18 01:11:46;;;;;;;6.78;3.37;;;;;;;20.92;52.50;101161.56;146695;613;46908;-63
2021/06/18 01:14:56;;;;;;;7.32;3.40;;;;;;;20.93;52.53;101162.44;146700;571;46018;-62
2021/06/18 01:18:02;;;;;;;6.60;2.90;;;;;;;20.81;52.71;101152.53;146694;564;46019;-63
2021/06/18 01:21:38;;;;;;;4.07;3.00;;;;;;;20.93;52.37;101162.44;146698;569;46010;-62
2021/06/18 01:25:13;;;;;;;5.87;3.20;;;;;;;20.84;52.33;101153.19;146698;566;46010;-62
2021/06/18 01:28:31;;;;;;;6.15;3.20;;;;;;;20.92;52.75;101180.22;146697;573;46008;-63
2021/06/18 01:31:04;;;;;;;6.50;3.12;;;;;;;20.96;52.44;101171.06;146696;571;46020;-64
2021/06/18 01:33:37;;;;;;;7.90;3.10;;;;;;;21.01;52.20;101169.91;146697;602;46019;-64
2021/06/18 01:36:09;;;;;;;5.37;3.10;;;;;;;20.99;52.25;101174.50;146697;650;46010;-62
2021/06/18 01:38:46;;;;;;;6.82;3.25;;;;;;;21.03;52.13;101178.69;146698;614;46010;-63
2021/06/18 01:41:30;;;;;;;5.28;3.20;;;;;;;21.02;52.64;101172.47;146694;569;47023;-62
2021/06/18 01:44:02;;;;;;;6.37;3.40;;;;;;;21.01;52.65;101178.81;146697;574;46018;-61
2021/06/18 01:46:36;;;;;;;6.90;3.60;;;;;;;21.01;52.76;101169.91;146697;583;46908;-61
2021/06/18 01:49:13;;;;;;;8.07;3.50;;;;;;;20.99;52.50;101170.03;146700;581;46018;-62
2021/06/18 01:51:46;;;;;;;7.97;3.53;;;;;;;21.00;52.71;101165.56;146696;661;46012;-62
2021/06/18 01:54:17;;;;;;;5.85;3.72;;;;;;;20.96;53.20;101164.88;146699;690;45048;-61
2021/06/18 01:56:48;;;;;;;5.72;3.60;;;;;;;20.92;53.25;101166.03;146696;569;47010;-62
2021/06/18 01:59:22;;;;;;;6.57;3.78;;;;;;;20.90;53.44;101175.94;146698;586;46018;-62
2021/06/18 02:01:53;;;;;;;5.50;3.25;;;;;;;20.86;53.13;101172.63;146696;587;46022;-62
2021/06/18 02:04:24;;;;;;;5.18;3.30;;;;;;;20.85;53.52;101172.75;146696;592;46018;-62
2021/06/18 02:06:56;;;;;;;4.97;3.40;;;;;;;20.89;53.32;101179.59;146696;613;46012;-63
2021/06/18 02:09:29;;;;;;;6.70;3.40;;;;;;;20.87;53.25;101170.81;146698;569;46019;-61
2021/06/18 02:11:59;;;;;;;6.97;3.53;;;;;;;20.88;52.84;101180.53;146697;592;46010;-61
2021/06/18 02:14:32;;;;;;;7.68;3.33;;;;;;;20.92;53.00;101179.37;146698;656;46008;-62
2021/06/18 02:17:06;;;;;;;6.37;3.40;;;;;;;20.88;53.16;101177.88;146696;592;46018;-62
2021/06/18 02:19:38;;;;;;;7.87;3.55;;;;;;;20.86;52.92;101171.75;146700;605;46008;-62
2021/06/18 02:22:11;;;;;;;5.22;3.55;;;;;;;20.89;53.33;101183.09;146695;604;46018;-62
2021/06/18 02:24:43;;;;;;;5.93;3.37;;;;;;;20.91;52.96;101180.34;146698;575;46019;-62
2021/06/18 02:27:15;;;;;;;4.87;3.20;;;;;;;20.88;53.23;101191.22;146694;563;46018;-62
2021/06/18 02:29:46;;;;;;;8.75;3.53;;;;;;;20.88;52.72;101180.53;146695;583;46010;-62
2021/06/18 02:32:18;;;;;;;7.18;3.53;;;;;;;20.85;53.40;101176.25;146693;600;46019;-62
2021/06/18 02:34:49;;;;;;;8.63;3.37;;;;;;;20.81;53.48;101176.56;146700;719;46010;-62
2021/06/18 02:37:19;;;;;;;8.75;3.75;;;;;;;20.79;53.59;101172.16;146695;575;46018;-62
2021/06/18 02:39:50;;;;;;;5.22;3.70;;;;;;;20.79;53.44;101172.16;146698;571;46019;-62
2021/06/18 02:42:21;;;;;;;5.80;3.70;;;;;;;20.73;53.52;101175.22;146693;581;46018;-62
2021/06/18 02:44:52;;;;;;;8.20;3.90;;;;;;;20.70;53.41;101170.06;146698;577;46018;-63
2021/06/18 02:48:12;;;;;;;6.97;4.03;;;;;;;20.67;53.92;101167.59;146695;572;46011;-63
2021/06/18 02:51:25;;;;;;;7.25;3.85;;;;;;;20.60;53.85;101160.94;146697;564;46018;-63
2021/06/18 02:54:12;;;;;;;7.20;3.87;;;;;;;20.71;53.58;101176.25;146694;584;46018;-63
2021/06/18 02:56:47;;;;;;;8.80;4.00;;;;;;;20.73;53.85;101167.22;146696;690;46018;-62
2021/06/18 03:00:04;;;;;;;7.15;4.37;;;;;;;20.70;53.90;101172.75;146695;653;46018;-64
2021/06/18 03:02:52;;;;;;;8.73;4.05;;;;;;;20.70;53.85;101172.75;146696;602;46008;-64
2021/06/18 03:05:25;;;;;;;8.30;4.07;;;;;;;20.68;53.83;101174.66;146693;596;47010;-64
2021/06/18 03:08:02;;;;;;;8.10;4.00;;;;;;;20.66;54.05;101165.00;146696;565;46014;-62
2021/06/18 03:10:49;;;;;;;5.93;4.00;;;;;;;20.62;53.67;101159.84;146694;602;46019;-62
2021/06/18 03:13:32;;;;;;;9.50;4.20;;;;;;;20.58;53.94;101158.34;146696;605;46018;-64
2021/06/18 03:16:04;;;;;;;11.45;4.18;;;;;;;20.65;53.66;101156.13;146694;587;46018;-63
2021/06/18 03:18:37;;;;;;;12.77;4.60;;;;;;;20.66;53.89;101154.34;146698;607;46008;-62
2021/06/18 03:21:10;;;;;;;8.32;4.03;;;;;;;20.68;53.59;101149.75;146693;627;47016;-63
2021/06/18 03:23:43;;;;;;;6.47;3.77;;;;;;;20.59;54.03;101153.88;146695;644;46008;-62
2021/06/18 03:26:15;;;;;;;6.37;3.42;;;;;;;20.55;53.95;101153.19;146695;574;46016;-63
2021/06/18 03:28:47;;;;;;;6.50;3.72;;;;;;;20.58;53.87;101149.47;146699;574;46008;-62
2021/06/18 03:31:20;;;;;;;5.55;3.70;;;;;;;20.58;53.88;101154.81;146694;593;46011;-62
2021/06/18 03:33:53;;;;;;;6.90;3.80;;;;;;;20.57;54.00;101145.97;146698;581;46018;-62
2021/06/18 03:36:25;;;;;;;12.82;3.70;;;;;;;20.56;53.63;101154.06;146693;582;46018;-62
2021/06/18 03:38:56;;;;;;;8.88;3.70;;;;;;;20.53;53.69;101149.78;146698;571;46019;-63
2021/06/18 03:41:27;;;;;;;9.43;4.07;;;;;;;20.46;54.26;101143.97;146693;571;46018;-63
2021/06/18 03:43:58;;;;;;;8.07;3.58;;;;;;;20.46;54.09;101146.66;146696;571;46018;-62
2021/06/18 03:46:30;;;;;;;7.37;4.07;;;;;;;20.41;54.48;101143.41;146696;583;47010;-62
2021/06/18 03:49:02;;;;;;;7.60;3.70;;;;;;;20.40;54.50;101136.34;146695;581;46010;-63
2021/06/18 03:51:34;;;;;;;12.63;4.00;;;;;;;20.42;54.62;101141.59;146695;563;46016;-62
2021/06/18 03:54:06;;;;;;;9.52;4.05;;;;;;;20.43;54.56;101151.31;146696;579;46010;-63
2021/06/18 03:56:42;;;;;;;9.68;4.30;;;;;;;20.44;54.60;101145.87;146695;585;46016;-62
2021/06/18 03:59:18;;;;;;;7.20;4.20;;;;;;;20.48;54.25;101145.69;146697;569;46018;-62
2021/06/18 04:01:57;;;;;;;10.40;4.30;;;;;;;20.49;54.60;101136.72;146694;671;46019;-63
2021/06/18 04:04:31;;;;;;;9.43;4.20;;;;;;;20.51;54.97;101142.84;146697;579;46018;-63
2021/06/18 04:07:04;;;;;;;8.88;4.00;;;;;;;20.56;54.92;101144.25;146693;575;47907;-64
2021/06/18 04:09:40;;;;;;;9.20;4.05;;;;;;;20.66;54.86;101136.50;146697;665;46019;-63
2021/06/18 04:12:11;;;;;;;9.98;4.20;;;;;;;20.72;54.55;101138.84;146692;708;46012;-63
2021/06/18 04:14:42;;;;;;;13.68;4.80;;;;;;;20.81;54.52;101144.53;146696;605;45028;-63
2021/06/18 04:17:13;;;;;;;10.85;4.20;;;;;;;20.91;54.80;101143.84;146695;597;46031;-63
2021/06/18 04:19:46;;;;;;;10.73;4.45;;;;;;;21.07;54.60;101143.69;146698;603;46008;-63
2021/06/18 04:22:27;;;;;;;17.30;5.13;;;;;;;21.20;54.45;101145.53;146696;580;46016;-61
2021/06/18 04:24:58;;;;;;;11.68;4.75;;;;;;;21.38;54.29;101144.34;146696;580;47011;-61
2021/06/18 04:27:28;;;;;;;11.00;4.78;;;;;;;21.47;54.75;101145.53;146695;569;46018;-63
2021/06/18 04:29:59;;;;;;;11.32;4.90;;;;;;;21.55;54.39;101148.56;146696;620;46018;-62
2021/06/18 04:32:29;;;;;;;10.63;5.60;;;;;;;21.65;54.67;101148.78;146693;630;46018;-62
2021/06/18 04:35:00;;;;;;;11.48;5.75;;;;;;;21.73;54.85;101153.62;146699;566;46008;-63
2021/06/18 04:37:30;;;;;;;12.90;6.40;;;;;;;21.88;54.58;101160.59;146696;727;46010;-62
2021/06/18 04:40:01;;;;;;;9.98;6.15;;;;;;;21.97;54.56;101159.94;146695;627;45019;-63
2021/06/18 04:42:32;;;;;;;12.98;6.68;;;;;;;22.10;54.82;101162.66;146695;683;47010;-62
2021/06/18 04:45:04;;;;;;;15.35;7.75;;;;;;;22.25;54.95;101165.19;146696;564;46018;-62
2021/06/18 04:47:35;;;;;;;11.43;6.70;;;;;;;22.42;54.60;101159.56;146695;573;46010;-62
2021/06/18 04:50:06;;;;;;;14.00;7.57;;;;;;;22.54;54.33;101151.59;146698;576;46018;-60
2021/06/18 04:52:41;;;;;;;12.52;7.18;;;;;;;22.72;54.34;101160.13;146695;605;46010;-63
2021/06/18 04:55:17;;;;;;;14.18;7.78;;;;;;;22.88;54.40;101159.88;146699;597;45019;-61
2021/06/18 04:57:49;;;;;;;11.50;7.82;;;;;;;23.02;54.20;101165.09;146694;602;46016;-63
2021/06/18 05:00:24;;;;;;;19.10;9.35;;;;;;;23.17;53.88;101171.16;146691;602;47010;-63
2021/06/18 05:02:54;;;;;;;19.83;11.48;;;;;;;23.27;53.87;101168.66;146695;583;46010;-62
2021/06/18 05:05:25;;;;;;;16.42;8.90;;;;;;;23.39;53.57;101166.84;146694;571;46018;-63
2021/06/18 05:07:57;;;;;;;14.48;8.75;;;;;;;23.47;53.55;101170.69;146696;613;46010;-63
2021/06/18 05:10:28;;;;;;;13.13;8.52;;;;;;;23.59;53.58;101170.72;146697;569;46019;-63
2021/06/18 05:12:58;;;;;;;16.67;9.68;;;;;;;23.68;53.58;101175.38;146696;593;46010;-62
2021/06/18 05:15:29;;;;;;;19.10;10.05;;;;;;;23.79;53.45;101182.59;146697;586;46019;-63
2021/06/18 05:18:01;;;;;;;16.42;10.60;;;;;;;23.88;53.26;101178.34;146694;594;46018;-61
2021/06/18 05:20:32;;;;;;;19.67;11.18;;;;;;;23.97;53.32;101180.38;146694;644;46008;-61
2021/06/18 05:23:02;;;;;;;17.50;10.40;;;;;;;24.04;52.94;101181.59;146693;608;46018;-61
2021/06/18 05:25:33;;;;;;;16.85;9.60;;;;;;;24.15;53.14;101178.94;146697;569;46026;-63
2021/06/18 05:28:05;;;;;;;17.27;9.75;;;;;;;24.26;53.13;101180.78;146692;565;46018;-64
2021/06/18 05:30:35;;;;;;;18.75;9.40;;;;;;;24.36;52.59;101180.03;146695;564;46019;-64
2021/06/18 05:33:06;;;;;;;13.05;8.45;;;;;;;24.36;52.08;101185.41;146694;571;47010;-63
2021/06/18 05:35:38;;;;;;;14.38;8.23;;;;;;;24.35;52.13;101173.81;146697;592;46008;-60
2021/06/18 05:38:09;;;;;;;16.33;8.00;;;;;;;24.43;52.11;101176.75;146695;587;46017;-61
2021/06/18 05:40:41;;;;;;;13.75;7.57;;;;;;;24.52;52.03;101168.94;146697;724;46018;-61
2021/06/18 05:43:12;;;;;;;11.20;6.80;;;;;;;24.65;51.85;101167.03;146693;661;46018;-60
2021/06/18 05:45:43;;;;;;;14.65;7.80;;;;;;;24.78;51.68;101178.47;146696;604;46020;-60
2021/06/18 05:48:13;;;;;;;14.10;7.05;;;;;;;24.89;51.43;101166.88;146696;599;46010;-61
2021/06/18 05:50:44;;;;;;;11.35;6.00;;;;;;;24.98;51.22;101168.78;146698;569;46008;-60
2021/06/18 05:53:14;;;;;;;12.95;6.57;;;;;;;25.02;50.54;101171.25;146695;646;46011;-61
2021/06/18 05:55:45;;;;;;;14.07;6.47;;;;;;;25.13;50.62;101171.19;146696;582;46010;-60
2021/06/18 05:58:16;;;;;;;21.10;7.40;;;;;;;25.22;50.58;101173.13;146694;591;46012;-61
2021/06/18 06:00:46;;;;;;;12.45;6.97;;;;;;;25.26;50.18;101179.06;146698;570;46019;-61
2021/06/18 06:03:17;;;;;;;12.00;5.97;;;;;;;25.35;49.98;101175.66;146696;606;46010;-62
2021/06/18 06:05:48;;;;;;;11.93;5.90;;;;;;;25.44;49.96;101174.91;146697;618;46018;-60
2021/06/18 06:08:20;;;;;;;10.52;4.40;;;;;;;25.55;49.70;101176.69;146690;577;47022;-59
2021/06/18 06:10:51;;;;;;;6.40;3.70;;;;;;;25.65;49.89;101168.69;146696;600;46008;-60
2021/06/18 06:13:22;;;;;;;4.62;3.28;;;;;;;25.78;49.47;101173.88;146693;644;46018;-62
2021/06/18 06:15:53;;;;;;;6.55;2.80;;;;;;;25.88;48.61;101179.34;146698;615;46008;-60
2021/06/18 06:18:24;;;;;;;5.10;2.90;;;;;;;25.90;48.69;101180.88;146691;565;46022;-60
2021/06/18 06:20:54;;;;;;;5.68;2.90;;;;;;;25.93;48.53;101164.50;146694;601;46017;-60
2021/06/18 06:23:25;;;;;;;10.00;4.78;;;;;;;26.00;48.39;101165.66;146694;617;46018;-61
2021/06/18 06:25:56;;;;;;;6.43;3.30;;;;;;;26.06;48.40;101175.06;146698;592;46018;-60
2021/06/18 06:28:28;;;;;;;15.50;10.13;;;;;;;26.15;48.32;101171.59;146693;639;47022;-60
2021/06/18 06:30:59;;;;;;;6.70;5.30;;;;;;;26.28;48.10;101170.50;146697;631;46008;-60
2021/06/18 06:33:30;;;;;;;5.35;3.15;;;;;;;26.38;47.51;101171.44;146693;639;46018;-60
2021/06/18 06:36:01;;;;;;;4.43;2.12;;;;;;;26.51;47.07;101177.41;146695;595;46008;-61
2021/06/18 06:38:31;;;;;;;8.05;3.10;;;;;;;26.61;46.68;101163.97;146695;564;46031;-59
2021/06/18 06:41:02;;;;;;;6.20;2.67;;;;;;;26.73;46.33;101167.44;146699;573;45018;-58
2021/06/18 06:43:32;;;;;;;7.03;2.70;;;;;;;26.73;46.42;101164.75;146695;645;46016;-58
2021/06/18 06:46:03;;;;;;;3.80;2.70;;;;;;;26.72;46.28;101165.75;146695;635;46019;-58
2021/06/18 06:48:33;;;;;;;30.27;3.83;;;;;;;26.77;46.66;101163.50;146697;598;46016;-59
2021/06/18 06:51:07;;;;;;;7.47;3.15;;;;;;;26.82;46.08;101166.63;146698;631;45908;-59
2021/06/18 06:53:37;;;;;;;4.50;2.83;;;;;;;26.85;45.44;101163.66;146699;573;46011;-59
2021/06/18 06:57:43;;;;;;;4.50;3.00;;;;;;;27.00;45.83;101156.03;146821;642;46023;-58
2021/06/18 07:00:14;;;;;;;5.72;3.00;;;;;;;27.07;45.55;101150.09;146709;586;46014;-59
2021/06/18 07:02:45;;;;;;;3.70;2.70;;;;;;;27.15;45.26;101152.94;146714;839;46020;-59
2021/06/18 07:05:15;;;;;;;4.07;2.80;;;;;;;27.22;45.17;101147.84;146708;579;46013;-58
2021/06/18 07:07:46;;;;;;;6.28;2.90;;;;;;;27.32;44.97;101141.41;146714;565;46020;-57
2021/06/18 07:10:17;;;;;;;8.73;3.10;;;;;;;27.41;44.60;101144.31;146710;566;46010;-57
2021/06/18 07:12:47;;;;;;;6.25;2.70;;;;;;;27.46;44.24;101142.88;146713;576;46021;-58
2021/06/18 07:15:18;;;;;;;5.10;2.70;;;;;;;27.48;44.36;101127.41;146709;596;46014;-58
2021/06/18 07:17:48;;;;;;;3.62;2.85;;;;;;;27.55;44.11;101137.63;146713;615;46020;-59
2021/06/18 07:20:19;;;;;;;5.30;3.00;;;;;;;27.63;44.32;101141.28;146707;598;47010;-58
2021/06/18 07:22:49;;;;;;;4.30;2.75;;;;;;;27.70;43.82;101145.09;146714;602;45041;-58
2021/06/18 07:25:20;;;;;;;4.45;2.70;;;;;;;27.79;44.06;101132.63;146709;820;46010;-58
2021/06/18 07:27:50;;;;;;;6.22;2.70;;;;;;;27.96;44.00;101141.78;146713;586;46021;-58
2021/06/18 07:30:23;;;;;;;4.30;2.70;;;;;;;27.99;43.24;101136.09;146708;614;47010;-58
2021/06/18 07:32:53;;;;;;;4.80;2.85;;;;;;;28.01;42.91;101127.91;146711;620;46020;-58
2021/06/18 07:35:24;;;;;;;5.68;3.10;;;;;;;27.98;41.87;101123.62;146706;813;46016;-58
2021/06/18 07:37:55;;;;;;;5.22;2.95;;;;;;;27.92;42.55;101128.75;146714;594;46020;-58
2021/06/18 07:40:25;;;;;;;4.85;2.60;;;;;;;27.94;42.70;101133.00;146710;637;46010;-58
2021/06/18 07:42:56;;;;;;;4.75;2.83;;;;;;;28.06;42.50;101122.91;146714;722;46008;-59
2021/06/18 07:45:26;;;;;;;7.35;3.10;;;;;;;28.14;42.42;101125.69;146709;564;46021;-58
2021/06/18 07:47:57;;;;;;;4.75;3.00;;;;;;;28.23;42.98;101129.38;146711;613;46020;-58
2021/06/18 07:50:27;;;;;;;8.02;3.03;;;;;;;28.36;42.52;101129.03;146708;617;45904;-58
2021/06/18 07:52:58;;;;;;;4.43;3.00;;;;;;;28.48;42.27;101130.53;146713;585;45023;-59
2021/06/18 07:55:29;;;;;;;3.95;2.85;;;;;;;28.54;41.20;101116.44;146711;594;46903;-59
2021/06/18 07:58:01;;;;;;;5.28;3.00;;;;;;;28.63;41.24;101116.53;146713;809;46021;-58
2021/06/18 08:00:31;;;;;;;7.20;3.15;;;;;;;28.67;41.43;101113.41;146709;578;46014;-59
2021/06/18 08:03:03;;;;;;;6.93;3.28;;;;;;;28.70;40.89;101112.25;146711;565;46008;-59
2021/06/18 08:05:33;;;;;;;6.12;3.25;;;;;;;28.73;41.44;101108.37;146709;570;46016;-58
2021/06/18 08:08:04;;;;;;;6.65;3.20;;;;;;;28.79;41.45;101102.41;146710;617;46008;-58
2021/06/18 08:10:35;;;;;;;9.45;3.30;;;;;;;28.77;40.40;101115.19;146708;583;46022;-58
2021/06/18 08:13:06;;;;;;;6.62;3.50;;;;;;;28.82;40.78;101105.63;146712;622;46008;-57
2021/06/18 08:15:36;;;;;;;7.07;3.40;;;;;;;28.89;41.35;101110.44;146708;566;46010;-60
2021/06/18 08:18:07;;;;;;;7.12;3.45;;;;;;;28.93;41.27;101103.72;146710;564;46020;-59
2021/06/18 08:20:37;;;;;;;9.00;3.17;;;;;;;28.90;39.81;101107.56;146710;571;45020;-59
2021/06/18 08:23:08;;;;;;;6.85;3.28;;;;;;;28.84;40.38;101095.53;146713;631;46008;-59
2021/06/18 08:25:39;;;;;;;7.18;3.47;;;;;;;28.98;40.51;101104.06;146710;577;46014;-59
2021/06/18 08:28:10;;;;;;;5.37;3.22;;;;;;;29.03;40.02;101101.75;146710;602;46008;-59
2021/06/18 08:30:40;;;;;;;5.18;3.10;;;;;;;29.20;39.79;101092.81;146710;732;46010;-59
2021/06/18 08:33:11;;;;;;;6.95;3.62;;;;;;;29.26;39.45;101088.66;146712;589;46008;-59
2021/06/18 08:35:42;;;;;;;5.12;3.28;;;;;;;29.37;39.21;101084.84;146709;778;46014;-59
2021/06/18 08:38:14;;;;;;;4.78;2.90;;;;;;;29.34;39.10;101077.91;146712;585;46020;-59
2021/06/18 08:40:46;;;;;;;5.35;3.10;;;;;;;29.33;38.95;101087.00;146710;566;46010;-60
2021/06/18 08:43:17;;;;;;;5.32;3.25;;;;;;;29.43;39.42;101080.66;146711;576;46021;-58
2021/06/18 08:45:47;;;;;;;7.00;3.40;;;;;;;29.44;39.43;101071.56;146707;621;47010;-59
2021/06/18 08:48:18;;;;;;;5.07;3.35;;;;;;;29.38;38.75;101070.34;146713;579;46020;-59
2021/06/18 08:50:48;;;;;;;4.68;3.25;;;;;;;29.38;39.73;101073.03;146708;586;46016;-59
2021/06/18 08:53:20;;;;;;;6.37;3.83;;;;;;;29.39;40.70;101072.03;146712;615;46008;-59
2021/06/18 08:55:51;;;;;;;7.37;4.32;;;;;;;29.49;41.17;101064.66;146708;576;46010;-59
2021/06/18 08:58:22;;;;;;;8.00;4.47;;;;;;;29.69;41.27;101064.47;146712;587;46008;-58
2021/06/18 09:00:53;;;;;;;7.20;4.35;;;;;;;29.47;42.46;101060.41;146708;693;47010;-59
2021/06/18 09:03:47;;;;;;;14.20;4.57;;;;;;;29.35;41.17;101062.53;146713;587;46008;-59
2021/06/18 09:06:39;;;;;;;8.00;3.80;;;;;;;29.47;41.05;101057.72;146707;615;46016;-58
2021/06/18 09:09:19;;;;;;;5.20;3.28;;;;;;;29.65;39.09;101055.81;146714;569;46010;-59
2021/06/18 09:11:56;;;;;;;5.90;3.53;;;;;;;29.71;40.16;101052.44;146709;606;46016;-59
2021/06/18 09:14:33;;;;;;;5.90;3.17;;;;;;;29.85;39.82;101050.19;146712;635;46020;-59
2021/06/18 09:17:24;;;;;;;7.47;3.90;;;;;;;30.05;39.93;101053.50;146710;608;46010;-59
2021/06/18 09:20:00;;;;;;;8.20;3.60;;;;;;;30.32;39.60;101056.97;146713;599;46009;-58
2021/06/18 09:22:41;;;;;;;6.18;3.35;;;;;;;30.34;38.87;101047.66;146707;582;47904;-59
2021/06/18 09:25:14;;;;;;;4.40;3.30;;;;;;;30.45;37.70;101043.84;146713;611;46020;-59
2021/06/18 09:27:51;;;;;;;5.60;3.42;;;;;;;30.48;37.84;101043.53;146706;569;47010;-59
2021/06/18 09:30:34;;;;;;;5.75;2.97;;;;;;;30.56;37.10;101039.97;146710;632;46020;-59
2021/06/18 09:33:23;;;;;;;4.43;2.80;;;;;;;30.50;35.13;101043.34;146708;609;46010;-58
2021/06/18 09:36:10;;;;;;;7.60;3.30;;;;;;;30.38;34.79;101037.37;146714;567;46021;-59
2021/06/18 09:38:50;;;;;;;3.85;2.90;;;;;;;30.49;36.40;101034.38;146710;579;46014;-59
2021/06/18 09:41:47;;;;;;;5.50;2.87;;;;;;;30.49;35.25;101033.53;146711;658;46020;-59
2021/06/18 09:44:23;;;;;;;4.55;2.80;;;;;;;30.60;35.33;101033.22;146709;691;46014;-59
2021/06/18 09:46:58;;;;;;;5.20;2.80;;;;;;;30.66;34.78;101027.13;146714;579;45020;-59
2021/06/18 09:49:47;;;;;;;7.07;2.80;;;;;;;30.51;33.96;101020.66;146707;564;46015;-59
2021/06/18 09:52:21;;;;;;;4.37;2.70;;;;;;;30.59;34.45;101017.97;146712;592;46008;-59
2021/06/18 09:54:54;;;;;;;5.55;2.90;;;;;;;30.62;35.01;101014.06;146709;582;46010;-59
2021/06/18 09:57:43;;;;;;;4.35;2.92;;;;;;;30.70;34.75;101009.53;146712;724;46008;-59
2021/06/18 10:00:18;;;;;;;6.80;2.83;;;;;;;30.76;33.90;101001.75;146709;728;46010;-58
2021/06/18 10:02:52;;;;;;;6.00;3.47;;;;;;;30.69;34.96;101004.28;146712;570;47010;-58
2021/06/18 10:05:32;;;;;;;5.62;3.28;;;;;;;30.61;36.06;100993.44;146708;574;46014;-58
2021/06/18 10:08:04;;;;;;;7.82;3.33;;;;;;;30.52;35.95;100995.28;146712;664;46020;-59
2021/06/18 10:10:37;;;;;;;5.63;3.50;;;;;;;30.65;36.31;101000.22;146709;666;46016;-59
2021/06/18 10:13:08;;;;;;;3.80;3.00;;;;;;;30.66;35.35;100991.91;146712;736;46009;-59
2021/06/18 10:15:38;;;;;;;5.30;2.78;;;;;;;30.75;35.03;100990.03;146707;593;46012;-59
2021/06/18 10:18:12;;;;;;;3.62;2.55;;;;;;;30.81;34.13;100989.37;146714;666;46008;-59
2021/06/18 10:20:42;;;;;;;4.53;2.80;;;;;;;30.93;33.67;100986.31;146709;573;46014;-59
2021/06/18 10:23:17;;;;;;;4.30;2.75;;;;;;;31.01;33.09;100994.44;146714;580;46008;-58
2021/06/18 10:25:56;;;;;;;3.85;2.80;;;;;;;30.91;33.21;100985.63;146709;605;46015;-58
2021/06/18 10:28:35;;;;;;;3.83;2.72;;;;;;;30.91;33.19;100982.91;146713;634;46020;-57
2021/06/18 10:31:07;;;;;;;5.97;2.75;;;;;;;30.85;32.66;100979.91;146708;629;46016;-58
2021/06/18 10:33:40;;;;;;;5.13;2.80;;;;;;;30.78;32.99;100984.28;146711;605;46020;-58
2021/06/18 10:36:29;;;;;;;3.47;2.30;;;;;;;30.65;33.21;100968.53;146710;737;46014;-57
2021/06/18 10:39:20;;;;;;;5.28;2.80;;;;;;;30.60;33.30;100959.22;146713;593;46020;-59
2021/06/18 10:42:00;;;;;;;7.53;3.17;;;;;;;30.63;33.71;100956.16;146708;587;46016;-59
2021/06/18 10:45:00;;;;;;;5.40;2.62;;;;;;;30.61;33.47;100944.66;146712;658;46008;-59
2021/06/18 10:47:56;;;;;;;4.03;2.78;;;;;;;30.68;33.67;100960.06;146710;681;46010;-59
2021/06/18 10:50:48;;;;;;;5.80;2.80;;;;;;;30.54;33.75;100956.16;146713;574;46008;-59
2021/06/18 10:53:20;;;;;;;4.28;2.70;;;;;;;30.59;33.66;100946.69;146707;643;46012;-59
2021/06/18 10:55:54;;;;;;;5.60;2.83;;;;;;;30.71;32.78;100950.75;146713;626;46008;-59
2021/06/18 10:59:07;;;;;;;5.43;2.78;;;;;;;30.65;33.48;100935.19;146708;570;46016;-59
2021/06/18 11:01:39;;;;;;;4.83;2.90;;;;;;;30.81;33.43;100937.88;146713;695;46008;-60
2021/06/18 11:04:10;;;;;;;11.57;2.80;;;;;;;30.86;32.95;100940.91;146706;639;46903;-59
2021/06/18 11:06:54;;;;;;;6.75;2.72;;;;;;;30.85;33.22;100941.09;146711;576;46008;-58
2021/06/18 11:09:47;;;;;;;4.15;2.30;;;;;;;30.81;33.16;100931.59;146707;587;46016;-58
2021/06/18 11:12:47;;;;;;;5.20;2.63;;;;;;;30.86;33.42;100929.22;146713;591;46021;-60
2021/06/18 11:15:42;;;;;;;3.15;2.37;;;;;;;31.02;32.47;100928.37;146710;633;46014;-59
2021/06/18 11:18:17;;;;;;;3.75;2.50;;;;;;;31.03;31.69;100922.81;146711;716;46008;-59
2021/06/18 11:20:51;;;;;;;4.70;2.25;;;;;;;30.89;30.88;100923.47;146701;598;46016;-59
2021/06/18 11:23:28;;;;;;;3.53;2.37;;;;;;;30.91;31.44;100921.44;146710;563;46020;-58
2021/06/18 11:26:09;;;;;;;4.62;2.40;;;;;;;30.89;31.07;100918.91;146708;611;46010;-59
2021/06/18 11:28:46;;;;;;;2.85;2.33;;;;;;;30.87;31.35;100904.66;146710;566;46023;-60
2021/06/18 11:31:41;;;;;;;3.58;2.28;;;;;;;30.77;31.55;100901.31;146708;603;46014;-58
2021/06/18 11:34:38;;;;;;;4.20;2.25;;;;;;;30.72;30.72;100900.97;146712;673;46020;-59
2021/06/18 11:37:08;;;;;;;3.75;2.15;;;;;;;30.84;31.06;100907.72;146709;710;47010;-59
2021/06/18 11:39:41;;;;;;;3.90;2.05;;;;;;;30.88;30.64;100908.25;146711;563;46020;-62
2021/06/18 11:42:11;;;;;;;4.17;2.30;;;;;;;30.89;31.17;100907.19;146706;739;47010;-60
2021/06/18 11:44:42;;;;;;;2.65;2.10;;;;;;;30.93;30.39;100910.41;146713;596;46008;-60
2021/06/18 11:47:12;;;;;;;2.85;2.10;;;;;;;31.08;29.83;100906.00;146709;683;46012;-60
2021/06/18 11:49:45;;;;;;;3.70;2.30;;;;;;;30.93;30.11;100911.25;146709;564;46021;-60
2021/06/18 11:52:15;;;;;;;2.53;2.05;;;;;;;30.95;30.27;100911.94;146709;686;46014;-60
2021/06/18 11:54:46;;;;;;;3.05;2.10;;;;;;;31.03;30.05;100909.25;146704;589;46020;-60
2021/06/18 11:57:20;;;;;;;5.68;2.20;;;;;;;31.03;30.69;100905.72;146707;696;46017;-59
2021/06/18 11:59:54;;;;;;;3.67;2.40;;;;;;;30.93;31.04;100905.00;146711;664;46008;-59
2021/06/18 12:02:31;;;;;;;3.20;2.20;;;;;;;30.95;30.22;100900.25;146706;572;46016;-61